createdAt,value
2024-05-09T00:00:06.840Z,95681.00
2024-05-09T00:01:06.263Z,95681.00
2024-05-09T00:02:06.434Z,95680.00
2024-05-09T00:03:06.310Z,95679.00
2024-05-09T00:04:06.346Z,95676.00
2024-05-09T00:05:06.379Z,95677.00
2024-05-09T00:06:06.308Z,95677.00
2024-05-09T00:07:06.266Z,95676.00
2024-05-09T00:08:06.396Z,95676.00
2024-05-09T00:09:06.243Z,95676.00
2024-05-09T00:10:09.234Z,95676.00
2024-05-09T00:11:07.312Z,95675.00
2024-05-09T00:12:06.418Z,95676.00
2024-05-09T00:13:06.670Z,95675.00
2024-05-09T00:14:06.307Z,95676.00
2024-05-09T00:15:06.267Z,95677.00
2024-05-09T00:16:06.288Z,95678.00
2024-05-09T00:17:06.379Z,95677.00
2024-05-09T00:18:06.961Z,95677.00
2024-05-09T00:19:06.394Z,95675.00
2024-05-09T00:20:14.271Z,95675.00
2024-05-09T00:21:07.426Z,95676.00
2024-05-09T00:22:06.280Z,95679.00
2024-05-09T00:23:06.323Z,95682.00
2024-05-09T00:24:06.290Z,95680.00
2024-05-09T00:25:06.281Z,95680.00
2024-05-09T00:26:06.289Z,95678.00
2024-05-09T00:27:06.328Z,95677.00
2024-05-09T00:28:06.307Z,95676.00
2024-05-09T00:29:06.362Z,95677.00
2024-05-09T00:30:07.389Z,95677.00
2024-05-09T00:31:06.300Z,95673.00
2024-05-09T00:32:06.337Z,95673.00
2024-05-09T00:33:07.618Z,95671.00
2024-05-09T00:34:06.503Z,95669.00
2024-05-09T00:35:06.504Z,95670.00
2024-05-09T00:36:06.519Z,95668.00
2024-05-09T00:37:06.565Z,95667.00
2024-05-09T00:38:06.794Z,95668.00
2024-05-09T00:39:06.562Z,95666.00
2024-05-09T00:40:09.564Z,95667.00
2024-05-09T00:41:07.642Z,95664.00
2024-05-09T00:42:06.613Z,95663.00
2024-05-09T00:43:06.634Z,95661.00
2024-05-09T00:44:06.670Z,95659.00
2024-05-09T00:45:06.598Z,95661.00
2024-05-09T00:46:06.605Z,95662.00
2024-05-09T00:47:06.749Z,95661.00
2024-05-09T00:48:07.800Z,95659.00
2024-05-09T00:49:06.710Z,95660.00
2024-05-09T00:50:10.142Z,95658.00
2024-05-09T00:51:07.824Z,95656.00
2024-05-09T00:52:06.671Z,95655.00
2024-05-09T00:53:07.041Z,95654.00
2024-05-09T00:54:06.667Z,95652.00
2024-05-09T00:55:06.669Z,95649.00
2024-05-09T00:56:06.820Z,95649.00
2024-05-09T00:57:06.735Z,95646.00
2024-05-09T00:58:06.697Z,95645.00
2024-05-09T00:59:06.714Z,95641.00
2024-05-09T01:00:12.222Z,95640.00
2024-05-09T01:01:07.734Z,95637.00
2024-05-09T01:02:06.827Z,95638.00
2024-05-09T01:03:07.005Z,95635.00
2024-05-09T01:04:06.929Z,95634.00
2024-05-09T01:05:06.822Z,95633.00
2024-05-09T01:06:06.801Z,95632.00
2024-05-09T01:07:06.787Z,95633.00
2024-05-09T01:08:06.855Z,95631.00
2024-05-09T01:09:06.703Z,95629.00
2024-05-09T01:10:13.818Z,95628.00
2024-05-09T01:11:07.757Z,95628.00
2024-05-09T01:12:06.880Z,95629.00
2024-05-09T01:13:07.199Z,95628.00
2024-05-09T01:14:06.853Z,95626.00
2024-05-09T01:15:06.719Z,95627.00
2024-05-09T01:16:06.739Z,95627.00
2024-05-09T01:17:06.841Z,95629.00
2024-05-09T01:18:07.007Z,95629.00
2024-05-09T01:19:06.852Z,95631.00
2024-05-09T01:20:10.783Z,95629.00
2024-05-09T01:21:07.767Z,95629.00
2024-05-09T01:22:06.754Z,95630.00
2024-05-09T01:23:06.895Z,95632.00
2024-05-09T01:24:06.738Z,95630.00
2024-05-09T01:25:06.751Z,95631.00
2024-05-09T01:26:06.800Z,95631.00
2024-05-09T01:27:06.760Z,95631.00
2024-05-09T01:28:06.790Z,95634.00
2024-05-09T01:29:06.788Z,95635.00
2024-05-09T01:30:09.566Z,95635.00
2024-05-09T01:31:07.770Z,95634.00
2024-05-09T01:32:06.827Z,95637.00
2024-05-09T01:33:08.935Z,95636.00
2024-05-09T01:34:06.806Z,95637.00
2024-05-09T01:35:06.856Z,95635.00
2024-05-09T01:36:06.774Z,95634.00
2024-05-09T01:37:06.789Z,95635.00
2024-05-09T01:38:06.954Z,95635.00
2024-05-09T01:39:06.781Z,95636.00
2024-05-09T01:40:09.751Z,95636.00
2024-05-09T01:41:07.794Z,95635.00
2024-05-09T01:42:06.772Z,95634.00
2024-05-09T01:43:07.010Z,95634.00
2024-05-09T01:44:06.826Z,95631.00
2024-05-09T01:45:06.770Z,95633.00
2024-05-09T01:46:06.787Z,95631.00
2024-05-09T01:47:06.906Z,95630.00
2024-05-09T01:48:07.055Z,95630.00
2024-05-09T01:49:07.014Z,95632.00
2024-05-09T01:50:10.662Z,95631.00
2024-05-09T01:51:06.858Z,95632.00
2024-05-09T01:52:06.814Z,95631.00
2024-05-09T01:53:06.892Z,95631.00
2024-05-09T01:54:06.803Z,95632.00
2024-05-09T01:55:07.064Z,95632.00
2024-05-09T01:56:06.884Z,95634.00
2024-05-09T01:57:06.806Z,95634.00
2024-05-09T01:58:06.825Z,95634.00
2024-05-09T01:59:06.908Z,95632.00
2024-05-09T02:00:07.963Z,95632.00
2024-05-09T02:01:06.850Z,95633.00
2024-05-09T02:02:07.083Z,95632.00
2024-05-09T02:03:07.219Z,95632.00
2024-05-09T02:04:07.191Z,95631.00
2024-05-09T02:05:07.065Z,95631.00
2024-05-09T02:06:06.988Z,95632.00
2024-05-09T02:07:06.928Z,95632.00
2024-05-09T02:08:06.894Z,95631.00
2024-05-09T02:09:06.825Z,95632.00
2024-05-09T02:10:13.753Z,95631.00
2024-05-09T02:11:07.961Z,95630.00
2024-05-09T02:12:07.011Z,95628.00
2024-05-09T02:13:06.850Z,95628.00
2024-05-09T02:14:06.863Z,95629.00
2024-05-09T02:15:06.849Z,95629.00
2024-05-09T02:16:06.859Z,95629.00
2024-05-09T02:17:06.995Z,95628.00
2024-05-09T02:18:07.226Z,95628.00
2024-05-09T02:19:06.918Z,95628.00
2024-05-09T02:20:10.730Z,95629.00
2024-05-09T02:21:07.923Z,95629.00
2024-05-09T02:22:06.891Z,95631.00
2024-05-09T02:23:07.290Z,95632.00
2024-05-09T02:24:06.890Z,95629.00
2024-05-09T02:25:06.863Z,95628.00
2024-05-09T02:26:06.979Z,95627.00
2024-05-09T02:27:06.932Z,95628.00
2024-05-09T02:28:06.873Z,95627.00
2024-05-09T02:29:06.928Z,95627.00
2024-05-09T02:30:18.325Z,95625.00
2024-05-09T02:31:07.891Z,95625.00
2024-05-09T02:32:07.111Z,95624.00
2024-05-09T02:33:07.364Z,95625.00
2024-05-09T02:34:06.964Z,95624.00
2024-05-09T02:35:06.942Z,95621.00
2024-05-09T02:36:06.912Z,95621.00
2024-05-09T02:37:06.957Z,95622.00
2024-05-09T02:38:06.998Z,95620.00
2024-05-09T02:39:06.898Z,95622.00
2024-05-09T02:40:09.334Z,95623.00
2024-05-09T02:41:07.166Z,95621.00
2024-05-09T02:42:06.909Z,95621.00
2024-05-09T02:43:07.307Z,95620.00
2024-05-09T02:44:07.035Z,95620.00
2024-05-09T02:45:06.924Z,95620.00
2024-05-09T02:46:06.946Z,95619.00
2024-05-09T02:47:07.269Z,95621.00
2024-05-09T02:48:07.276Z,95620.00
2024-05-09T02:49:06.981Z,95619.00
2024-05-09T02:50:08.232Z,95620.00
2024-05-09T02:51:07.042Z,95618.00
2024-05-09T02:52:06.942Z,95620.00
2024-05-09T02:53:07.068Z,95619.00
2024-05-09T02:54:06.925Z,95620.00
2024-05-09T02:55:06.944Z,95622.00
2024-05-09T02:56:07.024Z,95621.00
2024-05-09T02:57:06.972Z,95622.00
2024-05-09T02:58:06.983Z,95621.00
2024-05-09T02:59:07.013Z,95622.00
2024-05-09T03:00:14.951Z,95621.00
2024-05-09T03:01:07.985Z,95620.00
2024-05-09T03:02:07.046Z,95620.00
2024-05-09T03:03:07.332Z,95620.00
2024-05-09T03:04:07.140Z,95619.00
2024-05-09T03:05:07.054Z,95621.00
2024-05-09T03:06:06.949Z,95620.00
2024-05-09T03:07:06.988Z,95619.00
2024-05-09T03:08:07.094Z,95618.00
2024-05-09T03:09:06.968Z,95617.00
2024-05-09T03:10:12.238Z,95618.00
2024-05-09T03:11:08.039Z,95616.00
2024-05-09T03:12:07.034Z,95614.00
2024-05-09T03:13:06.978Z,95614.00
2024-05-09T03:14:07.020Z,95615.00
2024-05-09T03:15:06.971Z,95615.00
2024-05-09T03:16:06.965Z,95616.00
2024-05-09T03:17:07.093Z,95616.00
2024-05-09T03:18:07.463Z,95615.00
2024-05-09T03:19:07.043Z,95617.00
2024-05-09T03:20:11.494Z,95619.00
2024-05-09T03:21:08.046Z,95621.00
2024-05-09T03:22:07.027Z,95620.00
2024-05-09T03:23:07.013Z,95620.00
2024-05-09T03:24:07.010Z,95624.00
2024-05-09T03:25:06.996Z,95620.00
2024-05-09T03:26:07.022Z,95623.00
2024-05-09T03:27:07.068Z,95621.00
2024-05-09T03:28:07.071Z,95625.00
2024-05-09T03:29:07.046Z,95623.00
2024-05-09T03:30:07.675Z,95624.00
2024-05-09T03:31:07.000Z,95624.00
2024-05-09T03:32:07.110Z,95622.00
2024-05-09T03:33:07.278Z,95623.00
2024-05-09T03:34:07.110Z,95623.00
2024-05-09T03:35:07.039Z,95623.00
2024-05-09T03:36:09.766Z,95621.00
2024-05-09T03:37:07.084Z,95621.00
2024-05-09T03:38:07.095Z,95623.00
2024-05-09T03:39:07.026Z,95622.00
2024-05-09T03:40:11.668Z,95623.00
2024-05-09T03:41:08.083Z,95623.00
2024-05-09T03:42:07.028Z,95623.00
2024-05-09T03:43:07.025Z,95623.00
2024-05-09T03:44:07.080Z,95623.00
2024-05-09T03:45:07.040Z,95622.00
2024-05-09T03:46:07.129Z,95622.00
2024-05-09T03:47:07.167Z,95621.00
2024-05-09T03:48:07.249Z,95622.00
2024-05-09T03:49:07.104Z,95622.00
2024-05-09T03:50:14.993Z,95621.00
2024-05-09T03:51:08.115Z,95623.00
2024-05-09T03:52:07.102Z,95621.00
2024-05-09T03:53:07.132Z,95627.00
2024-05-09T03:54:07.043Z,95626.00
2024-05-09T03:55:07.064Z,95629.00
2024-05-09T03:56:07.101Z,95632.00
2024-05-09T03:57:07.109Z,95633.00
2024-05-09T03:58:07.086Z,95633.00
2024-05-09T03:59:07.107Z,95634.00
2024-05-09T04:00:14.484Z,95635.00
2024-05-09T04:01:08.091Z,95637.00
2024-05-09T04:02:07.132Z,95635.00
2024-05-09T04:03:09.297Z,95637.00
2024-05-09T04:04:07.109Z,95637.00
2024-05-09T04:05:07.150Z,95640.00
2024-05-09T04:06:07.107Z,95642.00
2024-05-09T04:07:07.128Z,95643.00
2024-05-09T04:08:07.207Z,95642.00
2024-05-09T04:09:07.118Z,95643.00
2024-05-09T04:10:11.095Z,95645.00
2024-05-09T04:11:08.200Z,95643.00
2024-05-09T04:12:07.132Z,95645.00
2024-05-09T04:13:07.136Z,95647.00
2024-05-09T04:14:07.133Z,95645.00
2024-05-09T04:15:09.585Z,95645.00
2024-05-09T04:16:07.110Z,95644.00
2024-05-09T04:17:07.252Z,95644.00
2024-05-09T04:18:07.413Z,95646.00
2024-05-09T04:19:07.232Z,95645.00
2024-05-09T04:20:10.531Z,95646.00
2024-05-09T04:21:07.153Z,95645.00
2024-05-09T04:22:07.101Z,95645.00
2024-05-09T04:23:08.138Z,95646.00
2024-05-09T04:24:07.113Z,95645.00
2024-05-09T04:25:07.091Z,95646.00
2024-05-09T04:26:07.170Z,95646.00
2024-05-09T04:27:07.313Z,95644.00
2024-05-09T04:28:07.117Z,95646.00
2024-05-09T04:29:07.197Z,95649.00
2024-05-09T04:30:21.668Z,95650.00
2024-05-09T04:31:26.540Z,95652.00
2024-05-09T04:32:26.681Z,95651.00
2024-05-09T04:33:26.720Z,95651.00
2024-05-09T04:34:26.610Z,95654.00
2024-05-09T04:35:26.728Z,95652.00
2024-05-09T04:36:26.555Z,95654.00
2024-05-09T04:37:26.541Z,95652.00
2024-05-09T04:38:26.557Z,95651.00
2024-05-09T04:39:26.545Z,95654.00
2024-05-09T04:40:33.101Z,95651.00
2024-05-09T04:41:27.637Z,95653.00
2024-05-09T04:42:26.560Z,95652.00
2024-05-09T04:43:26.585Z,95653.00
2024-05-09T04:44:26.690Z,95651.00
2024-05-09T04:45:26.567Z,95650.00
2024-05-09T04:46:26.570Z,95652.00
2024-05-09T04:47:26.731Z,95653.00
2024-05-09T04:48:26.825Z,95652.00
2024-05-09T04:49:26.686Z,95654.00
2024-05-09T04:50:35.446Z,95656.00
2024-05-09T04:51:27.589Z,95656.00
2024-05-09T04:52:26.630Z,95659.00
2024-05-09T04:53:26.625Z,95659.00
2024-05-09T04:54:34.193Z,95660.00
2024-05-09T04:55:27.604Z,95662.00
2024-05-09T04:56:26.602Z,95661.00
2024-05-09T04:57:26.597Z,95663.00
2024-05-09T04:58:26.603Z,95662.00
2024-05-09T04:59:26.692Z,95662.00
2024-05-09T05:00:34.546Z,95663.00
2024-05-09T05:01:27.654Z,95663.00
2024-05-09T05:02:26.666Z,95663.00
2024-05-09T05:03:26.680Z,95665.00
2024-05-09T05:04:26.614Z,95666.00
2024-05-09T05:05:26.636Z,95665.00
2024-05-09T05:06:26.610Z,95665.00
2024-05-09T05:07:26.601Z,95667.00
2024-05-09T05:08:26.612Z,95664.00
2024-05-09T05:09:26.638Z,95664.00
2024-05-09T05:10:33.575Z,95664.00
2024-05-09T05:11:27.674Z,95663.00
2024-05-09T05:12:26.701Z,95662.00
2024-05-09T05:13:26.612Z,95662.00
2024-05-09T05:14:26.667Z,95663.00
2024-05-09T05:15:26.629Z,95663.00
2024-05-09T05:16:26.602Z,95666.00
2024-05-09T05:17:26.794Z,95665.00
2024-05-09T05:18:27.292Z,95667.00
2024-05-09T05:19:26.767Z,95668.00
2024-05-09T05:20:32.887Z,95670.00
2024-05-09T05:21:27.672Z,95667.00
2024-05-09T05:22:26.646Z,95669.00
2024-05-09T05:23:26.695Z,95670.00
2024-05-09T05:24:26.625Z,95668.00
2024-05-09T05:25:26.630Z,95667.00
2024-05-09T05:26:26.663Z,95667.00
2024-05-09T05:27:26.638Z,95668.00
2024-05-09T05:28:26.678Z,95667.00
2024-05-09T05:29:26.630Z,95670.00
2024-05-09T05:30:32.402Z,95671.00
2024-05-09T05:31:27.682Z,95668.00
2024-05-09T05:32:27.253Z,95670.00
2024-05-09T05:33:26.965Z,95672.00
2024-05-09T05:34:26.650Z,95671.00
2024-05-09T05:35:26.826Z,95672.00
2024-05-09T05:36:26.645Z,95673.00
2024-05-09T05:37:26.676Z,95674.00
2024-05-09T05:38:28.522Z,95675.00
2024-05-09T05:39:26.657Z,95673.00
2024-05-09T05:40:33.343Z,95676.00
2024-05-09T05:41:27.731Z,95676.00
2024-05-09T05:42:26.687Z,95677.00
2024-05-09T05:43:26.682Z,95677.00
2024-05-09T05:44:26.773Z,95677.00
2024-05-09T05:45:26.685Z,95681.00
2024-05-09T05:46:26.672Z,95677.00
2024-05-09T05:47:26.844Z,95678.00
2024-05-09T05:48:26.817Z,95677.00
2024-05-09T05:49:26.901Z,95679.00
2024-05-09T05:50:32.612Z,95679.00
2024-05-09T05:51:27.736Z,95679.00
2024-05-09T05:52:27.188Z,95680.00
2024-05-09T05:53:26.728Z,95678.00
2024-05-09T05:54:26.686Z,95675.00
2024-05-09T05:55:26.696Z,95677.00
2024-05-09T05:56:26.751Z,95678.00
2024-05-09T05:57:26.709Z,95677.00
2024-05-09T05:58:26.700Z,95678.00
2024-05-09T05:59:26.704Z,95676.00
2024-05-09T06:00:34.382Z,95676.00
2024-05-09T06:01:27.796Z,95677.00
2024-05-09T06:02:26.793Z,95674.00
2024-05-09T06:03:26.820Z,95674.00
2024-05-09T06:04:26.770Z,95674.00
2024-05-09T06:05:27.797Z,95672.00
2024-05-09T06:06:26.715Z,95671.00
2024-05-09T06:07:26.751Z,95671.00
2024-05-09T06:08:30.169Z,95671.00
2024-05-09T06:09:26.741Z,95672.00
2024-05-09T06:10:35.063Z,95671.00
2024-05-09T06:11:27.797Z,95671.00
2024-05-09T06:12:26.851Z,95669.00
2024-05-09T06:13:26.737Z,95671.00
2024-05-09T06:14:26.871Z,95668.00
2024-05-09T06:15:26.723Z,95670.00
2024-05-09T06:16:26.736Z,95670.00
2024-05-09T06:17:26.856Z,95669.00
2024-05-09T06:18:26.998Z,95668.00
2024-05-09T06:19:26.875Z,95671.00
2024-05-09T06:20:34.763Z,95669.00
2024-05-09T06:21:27.782Z,95669.00
2024-05-09T06:22:26.740Z,95667.00
2024-05-09T06:23:26.810Z,95667.00
2024-05-09T06:24:26.733Z,95666.00
2024-05-09T06:25:26.756Z,95666.00
2024-05-09T06:26:26.823Z,95667.00
2024-05-09T06:27:26.747Z,95667.00
2024-05-09T06:28:26.749Z,95665.00
2024-05-09T06:29:26.894Z,95665.00
2024-05-09T06:30:35.309Z,95666.00
2024-05-09T06:31:27.759Z,95665.00
2024-05-09T06:32:26.910Z,95662.00
2024-05-09T06:33:26.992Z,95663.00
2024-05-09T06:34:26.952Z,95663.00
2024-05-09T06:35:26.786Z,95663.00
2024-05-09T06:36:26.781Z,95663.00
2024-05-09T06:37:26.786Z,95663.00
2024-05-09T06:38:26.817Z,95661.00
2024-05-09T06:39:26.783Z,95660.00
2024-05-09T06:40:35.764Z,95657.00
2024-05-09T06:41:27.899Z,95658.00
2024-05-09T06:42:26.805Z,95658.00
2024-05-09T06:43:26.835Z,95660.00
2024-05-09T06:44:26.826Z,95656.00
2024-05-09T06:45:26.826Z,95658.00
2024-05-09T06:46:26.783Z,95658.00
2024-05-09T06:47:26.904Z,95660.00
2024-05-09T06:48:26.977Z,95660.00
2024-05-09T06:49:26.899Z,95662.00
2024-05-09T06:50:28.429Z,95661.00
2024-05-09T06:51:27.810Z,95664.00
2024-05-09T06:52:26.791Z,95666.00
2024-05-09T06:53:26.879Z,95666.00
2024-05-09T06:54:26.816Z,95668.00
2024-05-09T06:55:26.951Z,95666.00
2024-05-09T06:56:26.875Z,95665.00
2024-05-09T06:57:26.800Z,95666.00
2024-05-09T06:58:26.843Z,95666.00
2024-05-09T06:59:26.878Z,95662.00
2024-05-09T07:00:34.616Z,95660.00
2024-05-09T07:01:27.923Z,95659.00
2024-05-09T07:02:26.907Z,95659.00
2024-05-09T07:03:27.033Z,95660.00
2024-05-09T07:04:26.912Z,95660.00
2024-05-09T07:05:26.982Z,95660.00
2024-05-09T07:06:26.888Z,95663.00
2024-05-09T07:07:26.835Z,95665.00
2024-05-09T07:08:26.892Z,95664.00
2024-05-09T07:09:26.832Z,95665.00
2024-05-09T07:10:32.887Z,95664.00
2024-05-09T07:11:27.920Z,95665.00
2024-05-09T07:12:26.915Z,95665.00
2024-05-09T07:13:26.853Z,95666.00
2024-05-09T07:14:26.919Z,95667.00
2024-05-09T07:15:26.872Z,95663.00
2024-05-09T07:16:26.866Z,95661.00
2024-05-09T07:17:27.118Z,95660.00
2024-05-09T07:18:26.976Z,95660.00
2024-05-09T07:19:26.900Z,95659.00
2024-05-09T07:20:33.996Z,95657.00
2024-05-09T07:21:27.861Z,95657.00
2024-05-09T07:22:26.889Z,95656.00
2024-05-09T07:23:26.969Z,95654.00
2024-05-09T07:24:26.870Z,95653.00
2024-05-09T07:25:26.900Z,95651.00
2024-05-09T07:26:26.963Z,95652.00
2024-05-09T07:27:26.900Z,95649.00
2024-05-09T07:28:26.897Z,95648.00
2024-05-09T07:29:27.012Z,95650.00
2024-05-09T07:30:31.069Z,95647.00
2024-05-09T07:31:27.899Z,95648.00
2024-05-09T07:32:27.134Z,95647.00
2024-05-09T07:33:27.196Z,95648.00
2024-05-09T07:34:27.042Z,95646.00
2024-05-09T07:35:27.185Z,95650.00
2024-05-09T07:36:26.891Z,95649.00
2024-05-09T07:37:26.935Z,95651.00
2024-05-09T07:38:27.001Z,95652.00
2024-05-09T07:39:26.928Z,95649.00
2024-05-09T07:40:34.613Z,95647.00
2024-05-09T07:41:27.982Z,95651.00
2024-05-09T07:42:26.899Z,95650.00
2024-05-09T07:43:26.939Z,95649.00
2024-05-09T07:44:26.980Z,95650.00
2024-05-09T07:45:44.919Z,95644.00
2024-05-09T07:47:36.850Z,95647.00
2024-05-09T07:50:00.653Z,95644.00
2024-05-09T07:53:32.332Z,95641.00
2024-05-09T07:53:39.866Z,95638.00
2024-05-09T07:54:28.149Z,95637.00
2024-05-09T07:55:27.090Z,95638.00
2024-05-09T07:56:27.385Z,95640.00
2024-05-09T07:57:27.002Z,95640.00
2024-05-09T07:58:27.096Z,95637.00
2024-05-09T07:59:26.941Z,95637.00
2024-05-09T08:00:31.200Z,95636.00
2024-05-09T08:01:28.149Z,95635.00
2024-05-09T08:02:27.049Z,95636.00
2024-05-09T08:03:27.045Z,95635.00
2024-05-09T08:04:27.077Z,95636.00
2024-05-09T08:05:27.097Z,95636.00
2024-05-09T08:06:27.057Z,95638.00
2024-05-09T08:07:26.965Z,95635.00
2024-05-09T08:08:27.004Z,95635.00
2024-05-09T08:09:27.067Z,95635.00
2024-05-09T08:10:29.021Z,95633.00
2024-05-09T08:11:27.139Z,95633.00
2024-05-09T08:12:27.210Z,95633.00
2024-05-09T08:13:27.245Z,95632.00
2024-05-09T08:14:27.324Z,95630.00
2024-05-09T08:15:27.501Z,95630.00
2024-05-09T08:16:27.651Z,95632.00
2024-05-09T08:17:27.617Z,95629.00
2024-05-09T08:18:27.761Z,95629.00
2024-05-09T08:19:27.674Z,95629.00
2024-05-09T08:20:33.418Z,95631.00
2024-05-09T08:21:28.747Z,95634.00
2024-05-09T08:22:27.680Z,95632.00
2024-05-09T08:23:27.695Z,95629.00
2024-05-09T08:24:27.720Z,95630.00
2024-05-09T08:25:27.783Z,95627.00
2024-05-09T08:26:27.688Z,95625.00
2024-05-09T08:27:27.730Z,95626.00
2024-05-09T08:28:27.808Z,95624.00
2024-05-09T08:29:27.710Z,95624.00
2024-05-09T08:30:33.710Z,95621.00
2024-05-09T08:31:28.821Z,95617.00
2024-05-09T08:32:27.793Z,95621.00
2024-05-09T08:33:27.831Z,95619.00
2024-05-09T08:34:27.809Z,95618.00
2024-05-09T08:35:27.718Z,95620.00
2024-05-09T08:36:27.748Z,95623.00
2024-05-09T08:37:32.659Z,95622.00
2024-05-09T08:38:28.706Z,95620.00
2024-05-09T08:39:27.774Z,95619.00
2024-05-09T08:40:33.951Z,95623.00
2024-05-09T08:41:28.745Z,95621.00
2024-05-09T08:42:27.771Z,95621.00
2024-05-09T08:43:27.743Z,95619.00
2024-05-09T08:44:27.735Z,95621.00
2024-05-09T08:45:27.813Z,95624.00
2024-05-09T08:46:27.921Z,95619.00
2024-05-09T08:47:27.799Z,95616.00
2024-05-09T08:48:28.014Z,95615.00
2024-05-09T08:49:27.863Z,95614.00
2024-05-09T08:50:36.166Z,95614.00
2024-05-09T08:51:28.797Z,95614.00
2024-05-09T08:52:27.742Z,95611.00
2024-05-09T08:53:27.766Z,95611.00
2024-05-09T08:54:27.808Z,95612.00
2024-05-09T08:55:27.761Z,95612.00
2024-05-09T08:56:27.762Z,95612.00
2024-05-09T08:57:27.844Z,95611.00
2024-05-09T08:58:27.755Z,95613.00
2024-05-09T08:59:27.750Z,95611.00
2024-05-09T09:00:35.685Z,95614.00
2024-05-09T09:01:28.978Z,95611.00
2024-05-09T09:02:27.879Z,95611.00
2024-05-09T09:03:27.973Z,95612.00
2024-05-09T09:04:27.911Z,95609.00
2024-05-09T09:05:28.001Z,95610.00
2024-05-09T09:06:27.838Z,95608.00
2024-05-09T09:07:27.830Z,95607.00
2024-05-09T09:08:27.780Z,95604.00
2024-05-09T09:09:27.831Z,95605.00
2024-05-09T09:10:32.063Z,95605.00
2024-05-09T09:11:28.882Z,95603.00
2024-05-09T09:12:27.871Z,95604.00
2024-05-09T09:13:28.286Z,95601.00
2024-05-09T09:14:27.785Z,95603.00
2024-05-09T09:15:27.984Z,95598.00
2024-05-09T09:16:27.921Z,95601.00
2024-05-09T09:17:27.867Z,95600.00
2024-05-09T09:18:28.118Z,95598.00
2024-05-09T09:19:28.025Z,95596.00
2024-05-09T09:20:35.394Z,95594.00
2024-05-09T09:21:28.866Z,95594.00
2024-05-09T09:22:27.816Z,95595.00
2024-05-09T09:23:27.814Z,95593.00
2024-05-09T09:24:27.818Z,95596.00
2024-05-09T09:25:27.811Z,95595.00
2024-05-09T09:26:27.812Z,95592.00
2024-05-09T09:27:27.867Z,95590.00
2024-05-09T09:28:27.858Z,95588.00
2024-05-09T09:29:27.855Z,95586.00
2024-05-09T09:30:35.380Z,95586.00
2024-05-09T09:31:28.944Z,95584.00
2024-05-09T09:32:27.932Z,95585.00
2024-05-09T09:33:28.349Z,95585.00
2024-05-09T09:34:27.980Z,95588.00
2024-05-09T09:35:27.845Z,95587.00
2024-05-09T09:36:27.915Z,95586.00
2024-05-09T09:37:27.860Z,95584.00
2024-05-09T09:38:27.855Z,95583.00
2024-05-09T09:39:27.898Z,95583.00
2024-05-09T09:40:32.069Z,95580.00
2024-05-09T09:41:28.866Z,95580.00
2024-05-09T09:42:27.912Z,95577.00
2024-05-09T09:43:27.900Z,95575.00
2024-05-09T09:44:27.849Z,95573.00
2024-05-09T09:45:27.957Z,95572.00
2024-05-09T09:46:27.970Z,95572.00
2024-05-09T09:47:27.955Z,95565.00
2024-05-09T09:48:27.982Z,95566.00
2024-05-09T09:49:27.908Z,95564.00
2024-05-09T09:50:33.995Z,95561.00
2024-05-09T09:51:28.931Z,95565.00
2024-05-09T09:52:27.966Z,95562.00
2024-05-09T09:53:27.899Z,95559.00
2024-05-09T09:54:27.940Z,95557.00
2024-05-09T09:55:27.909Z,95557.00
2024-05-09T09:56:27.907Z,95556.00
2024-05-09T09:57:27.994Z,95559.00
2024-05-09T09:58:27.978Z,95558.00
2024-05-09T09:59:27.914Z,95558.00
2024-05-09T10:00:32.855Z,95557.00
2024-05-09T10:01:28.984Z,95557.00
2024-05-09T10:02:28.072Z,95556.00
2024-05-09T10:03:28.087Z,95554.00
2024-05-09T10:04:28.028Z,95557.00
2024-05-09T10:05:28.239Z,95555.00
2024-05-09T10:06:27.954Z,95550.00
2024-05-09T10:07:27.930Z,95547.00
2024-05-09T10:08:27.953Z,95544.00
2024-05-09T10:09:27.952Z,95541.00
2024-05-09T10:10:32.314Z,95541.00
2024-05-09T10:11:28.976Z,95540.00
2024-05-09T10:12:28.080Z,95537.00
2024-05-09T10:13:28.028Z,95534.00
2024-05-09T10:14:27.952Z,95534.00
2024-05-09T10:15:28.020Z,95530.00
2024-05-09T10:16:27.966Z,95528.00
2024-05-09T10:17:27.971Z,95528.00
2024-05-09T10:18:30.377Z,95526.00
2024-05-09T10:19:28.021Z,95520.00
2024-05-09T10:20:32.365Z,95520.00
2024-05-09T10:21:27.974Z,95519.00
2024-05-09T10:22:28.016Z,95518.00
2024-05-09T10:23:28.007Z,95517.00
2024-05-09T10:24:28.006Z,95518.00
2024-05-09T10:25:27.996Z,95518.00
2024-05-09T10:26:27.997Z,95517.00
2024-05-09T10:27:27.977Z,95516.00
2024-05-09T10:28:27.946Z,95517.00
2024-05-09T10:29:27.951Z,95516.00
2024-05-09T10:30:34.125Z,95512.00
2024-05-09T10:31:28.995Z,95512.00
2024-05-09T10:32:28.057Z,95513.00
2024-05-09T10:33:28.182Z,95511.00
2024-05-09T10:34:28.138Z,95511.00
2024-05-09T10:35:27.970Z,95509.00
2024-05-09T10:36:27.994Z,95507.00
2024-05-09T10:37:28.083Z,95511.00
2024-05-09T10:38:27.971Z,95510.00
2024-05-09T10:39:28.007Z,95511.00
2024-05-09T10:40:31.260Z,95512.00
2024-05-09T10:41:27.981Z,95508.00
2024-05-09T10:42:28.029Z,95504.00
2024-05-09T10:43:28.051Z,95504.00
2024-05-09T10:44:28.247Z,95502.00
2024-05-09T10:45:28.029Z,95504.00
2024-05-09T10:46:28.061Z,95502.00
2024-05-09T10:47:28.080Z,95498.00
2024-05-09T10:48:28.218Z,95498.00
2024-05-09T10:49:28.077Z,95495.00
2024-05-09T10:50:31.847Z,95491.00
2024-05-09T10:51:29.098Z,95489.00
2024-05-09T10:52:28.077Z,95488.00
2024-05-09T10:53:28.011Z,95488.00
2024-05-09T10:54:28.102Z,95488.00
2024-05-09T10:55:28.126Z,95489.00
2024-05-09T10:56:28.015Z,95485.00
2024-05-09T10:57:28.098Z,95482.00
2024-05-09T10:58:28.047Z,95483.00
2024-05-09T10:59:28.016Z,95482.00
2024-05-09T11:00:33.661Z,95480.00
2024-05-09T11:01:29.132Z,95480.00
2024-05-09T11:02:28.205Z,95478.00
2024-05-09T11:03:28.189Z,95474.00
2024-05-09T11:04:28.085Z,95477.00
2024-05-09T11:05:28.290Z,95477.00
2024-05-09T11:06:28.087Z,95474.00
2024-05-09T11:07:28.081Z,95469.00
2024-05-09T11:08:28.080Z,95468.00
2024-05-09T11:09:28.078Z,95466.00
2024-05-09T11:10:33.702Z,95464.00
2024-05-09T11:11:29.114Z,95463.00
2024-05-09T11:12:28.110Z,95463.00
2024-05-09T11:13:28.058Z,95465.00
2024-05-09T11:14:28.053Z,95459.00
2024-05-09T11:15:28.093Z,95458.00
2024-05-09T11:16:28.085Z,95461.00
2024-05-09T11:17:28.108Z,95461.00
2024-05-09T11:18:30.662Z,95461.00
2024-05-09T11:19:29.183Z,95460.00
2024-05-09T11:20:29.949Z,95457.00
2024-05-09T11:21:28.170Z,95461.00
2024-05-09T11:22:28.141Z,95458.00
2024-05-09T11:23:28.088Z,95453.00
2024-05-09T11:24:28.133Z,95455.00
2024-05-09T11:25:28.059Z,95452.00
2024-05-09T11:26:28.115Z,95451.00
2024-05-09T11:27:28.117Z,95447.00
2024-05-09T11:28:28.232Z,95446.00
2024-05-09T11:29:28.074Z,95449.00
2024-05-09T11:30:31.870Z,95444.00
2024-05-09T11:31:28.195Z,95444.00
2024-05-09T11:32:28.335Z,95445.00
2024-05-09T11:33:28.176Z,95444.00
2024-05-09T11:34:28.158Z,95443.00
2024-05-09T11:35:28.119Z,95443.00
2024-05-09T11:36:28.132Z,95442.00
2024-05-09T11:37:28.176Z,95440.00
2024-05-09T11:38:28.291Z,95441.00
2024-05-09T11:39:28.125Z,95437.00
2024-05-09T11:40:33.804Z,95436.00
2024-05-09T11:41:29.117Z,95435.00
2024-05-09T11:42:28.135Z,95434.00
2024-05-09T11:43:28.156Z,95432.00
2024-05-09T11:44:28.088Z,95430.00
2024-05-09T11:45:28.214Z,95430.00
2024-05-09T11:46:28.165Z,95427.00
2024-05-09T11:47:28.203Z,95424.00
2024-05-09T11:48:28.353Z,95426.00